createdAt,value
2022-11-22T00:00:14.778Z,6.30
2022-11-22T00:02:41.961Z,5.80
2022-11-22T00:05:28.709Z,6.57
2022-11-22T00:07:55.946Z,5.50
2022-11-22T00:10:23.057Z,5.72
2022-11-22T00:12:57.548Z,6.35
2022-11-22T00:15:31.438Z,6.07
2022-11-22T00:18:05.533Z,5.47
2022-11-22T00:20:39.444Z,5.47
2022-11-22T00:23:06.759Z,5.40
2022-11-22T00:25:40.501Z,5.18
2022-11-22T00:28:07.722Z,5.88
2022-11-22T00:30:34.978Z,6.22
2022-11-22T00:33:08.577Z,5.60
2022-11-22T00:35:35.761Z,5.35
2022-11-22T00:38:09.642Z,5.68
2022-11-22T00:40:36.813Z,5.53
2022-11-22T00:43:03.930Z,4.90
2022-11-22T00:45:37.613Z,4.63
2022-11-22T00:48:04.843Z,4.85
2022-11-22T00:50:31.966Z,4.00
2022-11-22T00:53:05.553Z,3.88
2022-11-22T00:55:32.712Z,3.45
2022-11-22T00:58:06.699Z,3.80
2022-11-22T01:00:33.906Z,3.15
2022-11-22T01:03:01.105Z,2.47
2022-11-22T01:05:34.586Z,2.67
2022-11-22T01:08:01.823Z,2.80
2022-11-22T01:10:29.306Z,2.55
2022-11-22T01:15:29.773Z,2.33
2022-11-22T01:18:03.724Z,2.60
2022-11-22T01:20:30.946Z,2.67
2022-11-22T01:22:58.530Z,2.22
2022-11-22T01:27:59.759Z,2.28
2022-11-22T01:30:33.716Z,2.55
2022-11-22T01:33:00.920Z,2.50
2022-11-22T01:35:28.423Z,2.13
2022-11-22T01:40:29.114Z,2.28
2022-11-22T01:43:04.784Z,2.35
2022-11-22T01:45:32.317Z,2.10
2022-11-22T01:50:33.658Z,2.60
2022-11-22T01:53:03.268Z,2.20
2022-11-22T01:55:37.556Z,2.20
2022-11-22T01:58:04.904Z,2.25
2022-11-22T02:00:39.029Z,2.33
2022-11-22T02:03:08.536Z,2.60
2022-11-22T02:05:55.675Z,2.20
2022-11-22T02:08:36.228Z,2.00
2022-11-22T02:11:10.681Z,1.88
2022-11-22T02:13:40.280Z,1.77
2022-11-22T02:16:07.727Z,2.00
2022-11-22T02:18:42.664Z,1.98
2022-11-22T02:21:09.907Z,1.70
2022-11-22T02:23:56.664Z,2.00
2022-11-22T02:26:28.240Z,1.80
2022-11-22T02:29:03.773Z,1.77
2022-11-22T02:31:42.548Z,1.60
2022-11-22T02:34:17.758Z,2.00
2022-11-22T02:36:47.563Z,1.73
2022-11-22T02:39:16.490Z,1.52
2022-11-22T02:41:50.656Z,1.83
2022-11-22T02:44:18.573Z,1.98
2022-11-22T02:46:56.789Z,1.95
2022-11-22T02:49:25.104Z,2.20
2022-11-22T02:51:53.245Z,2.10
2022-11-22T02:54:26.556Z,2.15
2022-11-22T02:56:53.825Z,1.98
2022-11-22T02:59:28.201Z,1.70
2022-11-22T03:02:01.641Z,1.85
2022-11-22T03:04:43.624Z,1.95
2022-11-22T03:07:18.315Z,1.70
2022-11-22T03:09:52.700Z,2.17
2022-11-22T03:12:19.905Z,2.15
2022-11-22T03:14:47.346Z,2.30
2022-11-22T03:19:47.775Z,2.10
2022-11-22T03:22:21.714Z,2.00
2022-11-22T03:24:49.027Z,2.20
2022-11-22T03:27:16.167Z,1.88
2022-11-22T03:29:49.675Z,2.00
2022-11-22T03:32:16.877Z,2.00
2022-11-22T03:34:50.680Z,1.98
2022-11-22T03:37:18.011Z,2.13
2022-11-22T03:39:45.206Z,2.55
2022-11-22T03:42:21.881Z,2.55
2022-11-22T03:44:49.486Z,2.40
2022-11-22T03:47:23.757Z,2.47
2022-11-22T03:49:50.936Z,2.38
2022-11-22T03:52:18.063Z,3.00
2022-11-22T03:54:51.596Z,2.58
2022-11-22T03:57:18.881Z,2.80
2022-11-22T03:59:46.317Z,3.15
2022-11-22T04:05:07.465Z,2.53
2022-11-22T04:07:41.813Z,3.45
2022-11-22T04:10:09.314Z,3.38
2022-11-22T04:15:13.616Z,3.15
2022-11-22T04:17:44.554Z,2.78
2022-11-22T04:20:36.871Z,2.95
2022-11-22T04:23:23.248Z,3.03
2022-11-22T04:26:00.690Z,2.83
2022-11-22T04:28:54.117Z,3.00
2022-11-22T04:31:42.719Z,2.90
2022-11-22T04:34:09.973Z,3.10
2022-11-22T04:36:37.315Z,2.90
2022-11-22T04:39:10.654Z,3.13
2022-11-22T04:41:37.831Z,2.97
2022-11-22T04:44:30.887Z,3.85
2022-11-22T04:46:58.200Z,3.58
2022-11-22T04:49:25.314Z,3.22
2022-11-22T04:52:17.667Z,3.35
2022-11-22T04:54:45.003Z,2.88
2022-11-22T04:57:12.199Z,3.38
2022-11-22T04:59:45.654Z,3.22
2022-11-22T05:02:12.830Z,3.00
2022-11-22T05:04:52.735Z,3.50
2022-11-22T05:07:26.646Z,3.22
2022-11-22T05:10:00.584Z,3.08
2022-11-22T05:12:34.532Z,3.17
2022-11-22T05:15:08.788Z,3.40
2022-11-22T05:17:36.222Z,3.30
2022-11-22T05:22:55.660Z,3.65
2022-11-22T05:25:25.658Z,3.53
2022-11-22T05:28:02.623Z,3.10
2022-11-22T05:30:30.051Z,3.25
2022-11-22T05:35:30.673Z,3.10
2022-11-22T05:37:58.120Z,3.50
2022-11-22T05:42:59.412Z,3.47
2022-11-22T05:45:26.608Z,3.53
2022-11-22T05:48:00.607Z,3.22
2022-11-22T05:50:30.307Z,3.35
2022-11-22T05:53:08.725Z,3.05
2022-11-22T05:55:35.967Z,3.13
2022-11-22T05:58:03.102Z,3.30
2022-11-22T06:00:37.610Z,3.25
2022-11-22T06:03:04.927Z,3.30
2022-11-22T06:05:38.699Z,3.25
2022-11-22T06:08:06.098Z,3.10
2022-11-22T06:13:07.628Z,2.90
2022-11-22T06:15:34.788Z,3.22
2022-11-22T06:18:08.771Z,2.85
2022-11-22T06:20:35.932Z,2.97
2022-11-22T06:23:03.062Z,2.92
2022-11-22T06:25:36.624Z,3.80
2022-11-22T06:28:03.911Z,2.78
2022-11-22T06:30:37.621Z,2.78
2022-11-22T06:33:04.874Z,2.85
2022-11-22T06:35:31.969Z,3.20
2022-11-22T06:38:05.884Z,3.53
2022-11-22T06:40:33.163Z,3.42
2022-11-22T06:43:00.291Z,3.30
2022-11-22T06:45:33.722Z,3.55
2022-11-22T06:48:01.000Z,3.90
2022-11-22T06:50:34.747Z,3.83
2022-11-22T06:53:01.923Z,3.88
2022-11-22T06:55:49.605Z,3.40
2022-11-22T06:58:22.758Z,3.60
2022-11-22T07:00:49.940Z,3.78
2022-11-22T07:03:17.134Z,3.95
2022-11-22T07:05:57.650Z,3.83
2022-11-22T07:08:38.502Z,3.58
2022-11-22T07:11:06.544Z,3.63
2022-11-22T07:13:40.649Z,4.03
2022-11-22T07:16:08.835Z,4.25
2022-11-22T07:18:36.081Z,4.15
2022-11-22T07:21:14.858Z,4.20
2022-11-22T07:23:42.952Z,3.85
2022-11-22T07:26:10.412Z,3.78
2022-11-22T07:31:12.013Z,4.05
2022-11-22T07:33:45.720Z,3.90
2022-11-22T07:36:14.158Z,4.30
2022-11-22T07:38:41.524Z,4.22
2022-11-22T07:41:15.605Z,3.90
2022-11-22T07:43:42.982Z,4.07
2022-11-22T07:46:23.627Z,4.38
2022-11-22T07:48:50.934Z,4.60
2022-11-22T07:51:18.359Z,4.70
2022-11-22T07:53:51.591Z,4.05
2022-11-22T07:56:18.916Z,4.30
2022-11-22T07:58:52.634Z,3.72
2022-11-22T08:01:20.139Z,4.53
2022-11-22T08:06:21.820Z,3.63
2022-11-22T08:08:49.049Z,3.88
2022-11-22T08:11:16.228Z,3.70
2022-11-22T08:13:51.626Z,3.85
2022-11-22T08:16:18.895Z,3.80
2022-11-22T08:18:56.616Z,4.65
2022-11-22T08:21:23.866Z,4.30
2022-11-22T08:23:57.620Z,4.20
2022-11-22T08:26:25.046Z,3.67
2022-11-22T08:28:58.865Z,4.38
2022-11-22T08:31:26.875Z,4.63
2022-11-22T08:33:56.855Z,4.80
2022-11-22T08:36:30.760Z,4.47
2022-11-22T08:38:58.143Z,4.50
2022-11-22T08:41:25.704Z,4.60
2022-11-22T08:46:26.931Z,4.50
2022-11-22T08:48:54.280Z,3.80
2022-11-22T08:51:29.978Z,4.10
2022-11-22T08:53:57.148Z,4.20
2022-11-22T08:56:30.825Z,4.70
2022-11-22T08:58:57.962Z,5.25
2022-11-22T09:01:25.338Z,5.30
2022-11-22T09:03:58.641Z,4.88
2022-11-22T09:09:42.016Z,4.63
2022-11-22T09:12:09.443Z,5.03
2022-11-22T09:14:43.748Z,4.45
2022-11-22T09:17:16.102Z,4.95
2022-11-22T09:19:51.745Z,4.78
2022-11-22T09:22:19.570Z,4.65
2022-11-22T09:24:48.175Z,5.22
2022-11-22T09:27:21.820Z,5.55
2022-11-22T09:29:48.955Z,4.90
2022-11-22T09:32:16.222Z,5.25
2022-11-22T09:34:49.807Z,5.75
2022-11-22T09:37:26.553Z,5.00
2022-11-22T09:39:53.982Z,5.00
2022-11-22T09:42:52.552Z,5.40
2022-11-22T09:45:40.821Z,4.97
2022-11-22T09:48:26.557Z,4.40
2022-11-22T09:51:06.735Z,4.75
2022-11-22T09:54:02.595Z,4.97
2022-11-22T09:56:30.426Z,4.43
2022-11-22T09:59:14.738Z,4.82
2022-11-22T10:01:48.190Z,4.63
2022-11-22T10:04:24.578Z,3.83
2022-11-22T10:07:02.173Z,4.47
2022-11-22T10:10:00.558Z,5.00
2022-11-22T10:12:46.167Z,4.90
2022-11-22T10:15:36.563Z,4.75
2022-11-22T10:18:18.803Z,4.28
2022-11-22T10:20:52.701Z,5.40
2022-11-22T10:23:23.879Z,5.68
2022-11-22T10:26:07.561Z,5.28
2022-11-22T10:28:40.240Z,6.47
2022-11-22T10:31:13.742Z,5.55
2022-11-22T10:33:45.743Z,5.90
2022-11-22T10:36:26.548Z,5.30
2022-11-22T10:39:02.913Z,5.57
2022-11-22T10:41:46.563Z,6.35
2022-11-22T10:44:33.117Z,6.05
2022-11-22T10:47:06.710Z,6.47
2022-11-22T10:49:50.836Z,6.10
2022-11-22T10:52:45.692Z,6.03
2022-11-22T10:55:32.291Z,6.18
2022-11-22T10:58:06.708Z,6.03
2022-11-22T11:00:34.957Z,6.43
2022-11-22T11:03:17.707Z,7.05
2022-11-22T11:06:33.368Z,6.60
2022-11-22T11:09:54.931Z,6.45
2022-11-22T11:11:52.008Z,6.43
2022-11-22T11:14:25.586Z,6.15
2022-11-22T11:16:53.262Z,6.28
2022-11-22T11:19:22.448Z,6.90
2022-11-22T11:22:30.501Z,6.18
2022-11-22T11:25:23.337Z,6.80
2022-11-22T11:27:58.896Z,6.18
2022-11-22T11:30:26.289Z,6.43
2022-11-22T11:33:03.657Z,6.22
2022-11-22T11:35:30.900Z,5.60
2022-11-22T11:38:04.786Z,6.72
2022-11-22T11:40:33.029Z,6.72
2022-11-22T11:43:22.793Z,7.10
2022-11-22T11:45:50.112Z,6.57
2022-11-22T11:48:34.758Z,6.65
2022-11-22T11:51:17.240Z,7.63
2022-11-22T11:53:57.914Z,6.40
2022-11-22T11:56:25.092Z,7.25
2022-11-22T11:58:54.371Z,8.50
2022-11-22T12:01:28.948Z,7.63
2022-11-22T12:04:00.986Z,6.80
2022-11-22T12:06:36.646Z,6.97
2022-11-22T12:09:23.334Z,6.43
2022-11-22T12:11:58.859Z,6.57
2022-11-22T12:14:37.760Z,7.47
2022-11-22T12:17:25.683Z,6.40
2022-11-22T12:19:59.654Z,6.03
2022-11-22T12:22:50.968Z,6.57
2022-11-22T12:25:44.576Z,6.78
2022-11-22T12:28:25.678Z,6.30
2022-11-22T12:31:02.788Z,6.10
2022-11-22T12:33:41.809Z,5.83
2022-11-22T12:36:22.628Z,6.07
2022-11-22T12:38:52.308Z,6.15
2022-11-22T12:41:20.811Z,6.60
2022-11-22T12:43:59.709Z,6.53
2022-11-22T12:46:30.320Z,7.00
2022-11-22T12:49:12.935Z,6.65
2022-11-22T12:51:47.871Z,7.55
2022-11-22T12:54:27.918Z,7.03
2022-11-22T12:57:00.136Z,7.63
2022-11-22T12:59:40.810Z,7.32
2022-11-22T13:02:18.983Z,6.38
2022-11-22T13:07:45.250Z,6.68
2022-11-22T13:10:30.790Z,6.40
2022-11-22T13:12:59.127Z,6.50
2022-11-22T13:15:37.790Z,7.10
2022-11-22T13:18:08.663Z,6.82
2022-11-22T13:20:44.820Z,7.00
2022-11-22T13:23:30.882Z,7.05
2022-11-22T13:26:11.836Z,6.38
2022-11-22T13:28:42.261Z,7.07
2022-11-22T13:31:18.672Z,7.30
2022-11-22T13:34:18.291Z,6.70
2022-11-22T13:36:53.977Z,7.32
2022-11-22T13:39:25.933Z,7.32
2022-11-22T13:42:01.727Z,7.18
2022-11-22T13:44:36.207Z,6.22
2022-11-22T13:47:11.820Z,6.90
2022-11-22T13:49:48.548Z,7.05
2022-11-22T13:52:22.780Z,6.20
2022-11-22T13:54:53.151Z,7.43
2022-11-22T13:57:33.777Z,7.25
2022-11-22T14:00:16.009Z,7.25
2022-11-22T14:02:55.799Z,7.40
2022-11-22T14:05:51.759Z,6.55
2022-11-22T14:08:34.627Z,5.72
2022-11-22T14:11:17.063Z,7.70
2022-11-22T14:14:26.605Z,7.70
2022-11-22T14:17:12.711Z,7.18
2022-11-22T14:19:56.637Z,7.60
2022-11-22T14:22:42.666Z,7.13
2022-11-22T14:25:28.586Z,7.47
2022-11-22T14:28:10.145Z,6.80
2022-11-22T14:30:45.784Z,8.13
2022-11-22T14:33:23.977Z,7.45
2022-11-22T14:38:35.617Z,7.57
2022-11-22T14:41:28.595Z,7.57
2022-11-22T14:44:01.210Z,7.35
2022-11-22T14:46:52.658Z,7.47
2022-11-22T14:49:56.117Z,8.27
2022-11-22T14:52:33.651Z,7.60
2022-11-22T14:55:02.229Z,6.68
2022-11-22T14:57:36.614Z,7.88
2022-11-22T15:00:19.135Z,8.40
2022-11-22T15:02:52.614Z,9.38
2022-11-22T15:09:12.136Z,8.23
2022-11-22T15:09:23.701Z,8.63
2022-11-22T15:11:29.641Z,8.18
2022-11-22T15:14:16.767Z,8.30
2022-11-22T15:57:26.351Z,9.82
2022-11-22T16:00:00.703Z,10.73
2022-11-22T16:02:29.993Z,10.23
2022-11-22T16:06:06.517Z,9.52
2022-11-22T16:08:03.716Z,10.87
2022-11-22T16:10:44.850Z,9.90
2022-11-22T16:13:15.235Z,10.18
2022-11-22T16:15:48.927Z,10.02
2022-11-22T16:18:25.361Z,11.38
2022-11-22T16:21:09.037Z,11.82
2022-11-22T16:23:37.395Z,11.20
2022-11-22T16:26:28.031Z,11.02
2022-11-22T16:28:55.525Z,11.23
2022-11-22T16:33:56.450Z,10.68
2022-11-22T16:36:24.213Z,12.00
2022-11-22T16:38:57.712Z,11.55
2022-11-22T16:41:26.121Z,12.32
2022-11-22T16:44:04.705Z,10.52
2022-11-22T16:46:32.073Z,12.52
2022-11-22T16:48:59.250Z,11.48
2022-11-22T16:51:37.712Z,12.98
2022-11-22T16:54:08.546Z,11.82
2022-11-22T16:56:42.809Z,13.82
2022-11-22T16:59:12.768Z,12.73
2022-11-22T17:01:47.820Z,13.05
2022-11-22T17:04:26.204Z,12.23
2022-11-22T17:07:05.919Z,11.90
2022-11-22T17:09:39.793Z,13.55
2022-11-22T17:12:33.691Z,12.25
2022-11-22T17:15:07.783Z,13.57
2022-11-22T17:17:35.062Z,12.00
2022-11-22T17:20:02.260Z,14.07
2022-11-22T17:22:35.838Z,13.77
2022-11-22T17:25:02.966Z,13.38
2022-11-22T17:27:36.842Z,14.15
2022-11-22T17:30:04.012Z,11.98
2022-11-22T17:32:31.254Z,14.48
2022-11-22T17:35:05.040Z,13.52
2022-11-22T17:37:32.232Z,14.65
2022-11-22T17:39:59.374Z,13.82
2022-11-22T17:42:35.561Z,14.57
2022-11-22T17:45:07.123Z,13.15
2022-11-22T17:47:42.959Z,14.30
2022-11-22T17:50:10.892Z,14.30
2022-11-22T17:52:38.009Z,16.27
2022-11-22T17:55:14.347Z,15.38
2022-11-22T17:57:42.290Z,15.55
2022-11-22T18:02:43.246Z,13.98
2022-11-22T18:05:10.582Z,12.73
2022-11-22T18:07:45.877Z,15.40
2022-11-22T18:10:13.394Z,14.88
2022-11-22T18:12:58.608Z,15.02
2022-11-22T18:15:34.720Z,13.52
2022-11-22T18:18:11.336Z,14.82
2022-11-22T18:20:51.622Z,15.85
2022-11-22T18:23:25.791Z,14.70
2022-11-22T18:25:58.532Z,15.68
2022-11-22T18:29:02.546Z,14.52
2022-11-22T18:31:51.162Z,15.13
2022-11-22T18:34:26.930Z,14.90
2022-11-22T18:37:00.274Z,14.88
2022-11-22T18:39:36.541Z,15.68
2022-11-22T18:42:05.420Z,15.02
2022-11-22T18:44:38.796Z,14.82
2022-11-22T18:47:06.023Z,15.18
2022-11-22T18:49:33.802Z,14.45
2022-11-22T18:52:09.698Z,15.52
2022-11-22T18:54:39.443Z,15.32
2022-11-22T18:57:06.536Z,15.25
2022-11-22T18:59:40.840Z,14.57
2022-11-22T19:02:08.320Z,14.13
2022-11-22T19:04:41.900Z,15.40
2022-11-22T19:07:28.661Z,14.18
2022-11-22T19:10:03.973Z,14.32
2022-11-22T19:12:31.217Z,14.27
2022-11-22T19:14:58.698Z,15.43
2022-11-22T19:17:32.778Z,16.23
2022-11-22T19:20:00.001Z,15.00
2022-11-22T19:22:27.285Z,15.50
2022-11-22T19:25:00.854Z,16.27
2022-11-22T19:27:28.110Z,15.30
2022-11-22T19:30:01.987Z,16.23
2022-11-22T19:32:29.515Z,14.52
2022-11-22T19:34:56.716Z,14.80
2022-11-22T19:37:30.908Z,15.07
2022-11-22T19:39:58.213Z,17.02
2022-11-22T19:42:26.896Z,16.90
2022-11-22T19:45:00.906Z,16.38
2022-11-22T19:47:34.804Z,16.48
2022-11-22T19:50:02.283Z,16.80
2022-11-22T19:52:29.450Z,16.55
2022-11-22T19:55:03.970Z,16.70
2022-11-22T19:57:31.156Z,15.00
2022-11-22T20:00:00.120Z,17.67
2022-11-22T20:02:33.923Z,16.63
2022-11-22T20:05:01.083Z,15.30
2022-11-22T20:07:40.787Z,16.33
2022-11-22T20:10:08.167Z,16.65
2022-11-22T20:12:35.313Z,17.25
2022-11-22T20:15:09.738Z,18.13
2022-11-22T20:17:37.015Z,17.85
2022-11-22T20:20:11.879Z,18.88
2022-11-22T20:22:45.951Z,17.23
2022-11-22T20:25:19.971Z,17.15
2022-11-22T20:27:47.242Z,18.67
2022-11-22T20:30:14.601Z,18.38
2022-11-22T20:32:48.895Z,18.77
2022-11-22T20:35:16.096Z,18.38
2022-11-22T20:37:43.191Z,19.35
2022-11-22T20:40:16.802Z,18.88
2022-11-22T20:42:43.974Z,19.35
2022-11-22T20:45:12.059Z,19.38
2022-11-22T20:47:46.951Z,18.35
2022-11-22T20:50:14.250Z,19.73
2022-11-22T20:52:47.900Z,16.35
2022-11-22T20:55:15.269Z,19.77
2022-11-22T20:57:55.824Z,18.52
2022-11-22T21:00:22.987Z,17.38
2022-11-22T21:02:50.110Z,15.15
2022-11-22T21:05:23.894Z,18.67
2022-11-22T21:08:00.062Z,16.52
2022-11-22T21:10:37.779Z,18.75
2022-11-22T21:13:05.182Z,17.80
2022-11-22T21:15:38.902Z,18.90
2022-11-22T21:20:59.898Z,16.60
2022-11-22T21:23:27.021Z,19.30
2022-11-22T21:25:54.209Z,19.35
2022-11-22T21:28:27.901Z,19.77
2022-11-22T21:30:58.280Z,16.73
2022-11-22T21:33:26.032Z,19.60
2022-11-22T21:35:59.880Z,16.98
2022-11-22T21:38:31.172Z,18.70
2022-11-22T21:41:37.662Z,20.42
2022-11-22T21:43:57.298Z,18.90
2022-11-22T21:46:31.886Z,18.52
2022-11-22T21:48:59.179Z,20.70
2022-11-22T21:51:27.645Z,18.63
2022-11-22T21:54:07.770Z,21.33
2022-11-22T21:56:35.047Z,20.52
2022-11-22T21:59:08.806Z,19.83
2022-11-22T22:01:35.997Z,19.80
2022-11-22T22:04:09.907Z,19.73
2022-11-22T22:06:46.285Z,17.35
2022-11-22T22:09:26.951Z,20.42
2022-11-22T22:11:54.062Z,21.15
2022-11-22T22:14:21.209Z,20.17
2022-11-22T22:16:55.118Z,21.65
2022-11-22T22:19:22.305Z,21.38
2022-11-22T22:21:49.417Z,21.13
2022-11-22T22:24:22.838Z,19.05
2022-11-22T22:26:56.821Z,21.83
2022-11-22T22:29:24.002Z,22.40
2022-11-22T22:31:51.216Z,21.35
2022-11-22T22:34:25.818Z,22.23
2022-11-22T22:36:53.113Z,22.05
2022-11-22T22:39:20.253Z,21.90
2022-11-22T22:41:53.896Z,21.50
2022-11-22T22:44:21.152Z,22.35
2022-11-22T22:46:54.921Z,23.08
2022-11-22T22:49:22.102Z,21.83
2022-11-22T22:51:51.428Z,21.85
2022-11-22T22:54:24.919Z,22.67
2022-11-22T22:56:52.063Z,23.50
2022-11-22T22:59:25.802Z,21.55
2022-11-22T23:01:52.905Z,22.48
2022-11-22T23:04:20.086Z,22.98
2022-11-22T23:06:54.090Z,22.92
2022-11-22T23:09:27.788Z,23.52
2022-11-22T23:12:19.864Z,22.30
2022-11-22T23:14:47.235Z,21.83
2022-11-22T23:17:21.035Z,21.13
2022-11-22T23:19:48.496Z,21.90
2022-11-22T23:22:15.745Z,23.55
2022-11-22T23:24:49.989Z,22.67
2022-11-22T23:27:17.173Z,22.10
2022-11-22T23:29:44.278Z,21.98
2022-11-22T23:32:17.891Z,24.58
2022-11-22T23:34:45.115Z,22.98
2022-11-22T23:37:12.236Z,22.77
2022-11-22T23:39:45.915Z,22.77
2022-11-22T23:42:13.308Z,23.15
2022-11-22T23:44:40.531Z,22.83
2022-11-22T23:47:14.185Z,21.67
2022-11-22T23:49:41.451Z,22.08
2022-11-22T23:52:08.816Z,22.58
2022-11-22T23:54:42.825Z,23.45
2022-11-22T23:57:10.011Z,23.05
2022-11-22T23:59:43.956Z,22.45
